Time;durP1;ratioP1;P1;durP2;ratioP2;P2;SDS_P1;SDS_P2;PMS_P1;PMS_P2;Temp;Humidity;BMP_temperature;BMP_pressure;BME280_temperature;BME280_humidity;BME280_pressure;Samples;Min_cycle;Max_cycle;Signal;HPM_P1;HPM_P2
2021/04/26 04:47:08;;;;;;;9.75;2.75;;;;;;;;;;6183310;22;883474;-79
2021/04/26 04:49:34;;;;;;;10.55;2.50;;;;;;;;;;6248979;23;20008;-79
2021/04/26 04:52:00;;;;;;;7.05;3.25;;;;;;;;;;6249869;23;20460;-78
2021/04/26 04:56:44;;;;;;;6.93;3.22;;;;;;;;;;5140753;27;20455;-78
2021/04/26 04:59:10;;;;;;;4.30;1.95;;;;;;;;;;5106581;28;20032;-78
2021/04/26 05:03:55;;;;;;;6.63;2.45;;;;;;;;;;5083176;28;20179;-77
2021/04/26 05:06:20;;;;;;;5.78;2.70;;;;;;;;;;5062570;28;20044;-77
2021/04/26 05:08:46;;;;;;;8.00;2.10;;;;;;;;;;5044658;28;20036;-77
2021/04/26 05:11:12;;;;;;;6.50;1.95;;;;;;;;;;5049534;28;20535;-77
2021/04/26 05:13:38;;;;;;;4.85;2.35;;;;;;;;;;5047857;28;20033;-77
2021/04/26 05:16:04;;;;;;;7.85;3.00;;;;;;;;;;5046910;28;20025;-76
2021/04/26 05:18:30;;;;;;;5.68;2.67;;;;;;;;;;5046120;28;20029;-77
2021/04/26 05:20:56;;;;;;;4.78;2.35;;;;;;;;;;5046366;28;20125;-77
2021/04/26 05:23:22;;;;;;;5.18;2.00;;;;;;;;;;5047221;28;20160;-77
2021/04/26 05:25:49;;;;;;;8.82;2.47;;;;;;;;;;5042205;28;20470;-77
2021/04/26 05:28:15;;;;;;;4.88;2.30;;;;;;;;;;5042544;28;20044;-77
2021/04/26 05:30:41;;;;;;;5.55;2.42;;;;;;;;;;5042599;28;20028;-77
2021/04/26 05:33:06;;;;;;;4.53;2.20;;;;;;;;;;5039899;28;20028;-77
2021/04/26 05:35:32;;;;;;;3.88;2.20;;;;;;;;;;5040273;28;20652;-77
2021/04/26 05:38:08;;;;;;;7.28;2.90;;;;;;;;;;5046073;28;20040;-77
2021/04/26 05:40:33;;;;;;;4.90;2.40;;;;;;;;;;5048415;28;20362;-77
2021/04/26 05:43:00;;;;;;;7.30;2.45;;;;;;;;;;5044843;28;20024;-78
2021/04/26 05:45:26;;;;;;;5.82;2.83;;;;;;;;;;5048904;28;20025;-77
2021/04/26 05:47:52;;;;;;;6.97;2.58;;;;;;;;;;5049296;28;20175;-78
2021/04/26 05:50:18;;;;;;;6.05;2.15;;;;;;;;;;5045457;28;20433;-78
2021/04/26 05:52:44;;;;;;;6.53;2.83;;;;;;;;;;5042455;28;20124;-77
2021/04/26 05:55:10;;;;;;;6.63;2.60;;;;;;;;;;5046992;28;20113;-79
2021/04/26 05:57:35;;;;;;;6.78;3.00;;;;;;;;;;5043702;28;20421;-77
2021/04/26 06:00:01;;;;;;;4.68;2.42;;;;;;;;;;5054974;28;20116;-78
2021/04/26 06:02:26;;;;;;;5.72;2.30;;;;;;;;;;5046971;28;20041;-77
2021/04/26 06:04:52;;;;;;;5.90;3.08;;;;;;;;;;5047274;28;20385;-78
2021/04/26 06:07:18;;;;;;;7.68;2.85;;;;;;;;;;5048606;28;20104;-79
2021/04/26 06:09:43;;;;;;;5.63;2.85;;;;;;;;;;5041400;28;20117;-77
2021/04/26 06:12:09;;;;;;;4.25;2.53;;;;;;;;;;5057033;28;20024;-78
2021/04/26 06:14:35;;;;;;;10.18;2.78;;;;;;;;;;5035940;28;20486;-78
2021/04/26 06:17:00;;;;;;;6.00;2.72;;;;;;;;;;5036306;28;20112;-77
2021/04/26 06:19:27;;;;;;;7.80;2.78;;;;;;;;;;5033590;28;20108;-79
2021/04/26 06:21:53;;;;;;;6.13;2.67;;;;;;;;;;5034927;28;20033;-78
2021/04/26 06:24:19;;;;;;;6.68;2.90;;;;;;;;;;5034558;28;20025;-77
2021/04/26 06:26:44;;;;;;;8.38;2.80;;;;;;;;;;5029024;28;20496;-77
2021/04/26 06:29:10;;;;;;;8.18;2.75;;;;;;;;;;5043354;28;20143;-77
2021/04/26 06:31:36;;;;;;;6.63;2.55;;;;;;;;;;5031504;28;20018;-77
2021/04/26 06:36:20;;;;;;;8.32;3.03;;;;;;;;;;5123629;27;20752;-77
2021/04/26 06:38:45;;;;;;;4.63;2.42;;;;;;;;;;5097277;28;20030;-78
2021/04/26 06:41:11;;;;;;;6.80;3.63;;;;;;;;;;5084646;28;20555;-78
2021/04/26 06:43:37;;;;;;;10.48;2.55;;;;;;;;;;5091129;28;20483;-78
2021/04/26 06:46:02;;;;;;;8.15;2.90;;;;;;;;;;5086254;28;20104;-78
2021/04/26 06:48:28;;;;;;;7.50;2.80;;;;;;;;;;5102746;28;20111;-78
2021/04/26 06:50:56;;;;;;;6.82;2.72;;;;;;;;;;5091630;28;20468;-77
2021/04/26 06:53:21;;;;;;;4.80;2.97;;;;;;;;;;5102298;28;20055;-77
2021/04/26 06:55:47;;;;;;;6.40;3.03;;;;;;;;;;5096517;28;20103;-78
2021/04/26 06:58:13;;;;;;;11.48;3.40;;;;;;;;;;5094666;28;20082;-79
2021/04/26 07:00:39;;;;;;;8.50;3.20;;;;;;;;;;5086796;28;20408;-79
2021/04/26 07:03:05;;;;;;;10.40;2.75;;;;;;;;;;5094045;28;20023;-78
2021/04/26 07:05:30;;;;;;;8.70;3.33;;;;;;;;;;5094173;28;20024;-78
2021/04/26 07:07:56;;;;;;;6.90;2.55;;;;;;;;;;5106849;28;20016;-78
2021/04/26 07:10:22;;;;;;;6.80;2.28;;;;;;;;;;5093465;28;20040;-79
2021/04/26 07:12:47;;;;;;;8.45;3.28;;;;;;;;;;5082837;28;20040;-78
2021/04/26 07:15:14;;;;;;;8.52;2.58;;;;;;;;;;5092287;28;20032;-78
2021/04/26 07:17:40;;;;;;;6.95;3.25;;;;;;;;;;5094301;28;20022;-77
2021/04/26 07:20:07;;;;;;;5.93;2.95;;;;;;;;;;5100562;28;20016;-78
2021/04/26 07:22:33;;;;;;;7.00;2.78;;;;;;;;;;5094625;28;20024;-78
2021/04/26 07:24:58;;;;;;;8.18;3.08;;;;;;;;;;5105940;28;20028;-79
2021/04/26 07:27:24;;;;;;;8.82;3.15;;;;;;;;;;5094190;28;20494;-78
2021/04/26 07:29:51;;;;;;;6.47;2.42;;;;;;;;;;5099042;28;20111;-78
2021/04/26 07:32:17;;;;;;;7.35;2.97;;;;;;;;;;5097443;28;20032;-78
2021/04/26 07:34:43;;;;;;;6.50;3.10;;;;;;;;;;5100544;28;20107;-79
2021/04/26 07:37:08;;;;;;;14.05;3.47;;;;;;;;;;5100109;28;20017;-77
2021/04/26 07:39:34;;;;;;;8.88;2.88;;;;;;;;;;5095153;28;20086;-78
2021/04/26 07:42:00;;;;;;;10.15;3.67;;;;;;;;;;5089139;28;20035;-78
2021/04/26 07:44:26;;;;;;;7.88;3.03;;;;;;;;;;5093221;28;20028;-79
2021/04/26 07:46:54;;;;;;;7.00;2.90;;;;;;;;;;5082627;28;20372;-78
2021/04/26 07:49:20;;;;;;;9.45;3.35;;;;;;;;;;5081288;28;20049;-78
2021/04/26 07:51:47;;;;;;;5.05;2.78;;;;;;;;;;5080939;28;20051;-78
2021/04/26 07:54:13;;;;;;;6.63;3.03;;;;;;;;;;5085642;28;20389;-78
2021/04/26 07:56:39;;;;;;;8.95;3.25;;;;;;;;;;5078905;28;20115;-78
2021/04/26 07:59:05;;;;;;;6.35;3.05;;;;;;;;;;5079539;28;20016;-77
2021/04/26 08:01:32;;;;;;;6.18;2.63;;;;;;;;;;5078953;28;20439;-78
2021/04/26 08:03:57;;;;;;;13.15;3.63;;;;;;;;;;5085382;28;20496;-78
2021/04/26 08:06:23;;;;;;;9.68;3.65;;;;;;;;;;5081316;28;20115;-77
2021/04/26 08:08:49;;;;;;;13.88;3.05;;;;;;;;;;5088676;28;20023;-78
2021/04/26 08:11:14;;;;;;;7.57;3.65;;;;;;;;;;5083740;28;20028;-78
2021/04/26 08:13:40;;;;;;;6.75;3.13;;;;;;;;;;5074896;28;20024;-78
2021/04/26 08:16:06;;;;;;;5.88;2.88;;;;;;;;;;5085376;28;20020;-78
2021/04/26 08:18:31;;;;;;;9.13;4.10;;;;;;;;;;5078485;28;20023;-78
2021/04/26 08:20:58;;;;;;;4.70;2.95;;;;;;;;;;5087497;28;20016;-78
2021/04/26 08:23:23;;;;;;;7.70;3.78;;;;;;;;;;5081670;28;20028;-78
2021/04/26 08:25:49;;;;;;;9.48;3.67;;;;;;;;;;5088711;28;20053;-78
2021/04/26 08:28:16;;;;;;;6.68;4.10;;;;;;;;;;5083521;28;20051;-78
2021/04/26 08:30:42;;;;;;;7.18;3.40;;;;;;;;;;5075003;28;20073;-78
2021/04/26 08:33:08;;;;;;;8.18;3.50;;;;;;;;;;5085526;28;20028;-78
2021/04/26 08:35:34;;;;;;;5.60;3.17;;;;;;;;;;5077828;28;20074;-79
2021/04/26 08:38:00;;;;;;;7.25;3.35;;;;;;;;;;5089114;28;20028;-78
2021/04/26 08:40:26;;;;;;;9.55;3.17;;;;;;;;;;5081931;28;20024;-78
2021/04/26 08:42:51;;;;;;;8.55;3.33;;;;;;;;;;5091678;28;20016;-79
2021/04/26 08:45:19;;;;;;;9.57;3.97;;;;;;;;;;5083966;28;20031;-80
2021/04/26 08:47:45;;;;;;;6.45;3.20;;;;;;;;;;5091522;28;20484;-78
2021/04/26 08:50:11;;;;;;;7.13;3.25;;;;;;;;;;5086354;28;20028;-78
2021/04/26 08:52:37;;;;;;;7.65;3.95;;;;;;;;;;5079124;28;20026;-78
2021/04/26 08:55:03;;;;;;;4.97;2.85;;;;;;;;;;5091139;28;20027;-78
2021/04/26 08:57:29;;;;;;;9.95;4.50;;;;;;;;;;5084538;28;20447;-78
2021/04/26 08:59:55;;;;;;;6.82;2.90;;;;;;;;;;5076613;28;20013;-78
2021/04/26 09:02:20;;;;;;;13.02;3.83;;;;;;;;;;5088093;28;20024;-77
2021/04/26 09:04:50;;;;;;;6.68;3.92;;;;;;;;;;5084659;28;20016;-79
2021/04/26 09:07:16;;;;;;;8.45;4.32;;;;;;;;;;5091154;28;20554;-77
2021/04/26 09:09:44;;;;;;;7.00;3.10;;;;;;;;;;5086900;28;20036;-78
2021/04/26 09:12:13;;;;;;;7.57;3.10;;;;;;;;;;5072610;28;20013;-78
2021/04/26 09:14:41;;;;;;;5.40;3.50;;;;;;;;;;5078097;28;20024;-78
2021/04/26 09:17:24;;;;;;;5.80;3.30;;;;;;;;;;5080023;28;20021;-79
2021/04/26 09:19:50;;;;;;;8.07;3.50;;;;;;;;;;5080806;28;20040;-79
2021/04/26 09:22:16;;;;;;;8.38;4.13;;;;;;;;;;5077009;28;20100;-79
2021/04/26 09:24:42;;;;;;;6.72;3.20;;;;;;;;;;5094266;28;20020;-79
2021/04/26 09:27:12;;;;;;;8.18;3.63;;;;;;;;;;5080004;28;20068;-78
2021/04/26 09:29:38;;;;;;;7.00;3.80;;;;;;;;;;5079276;28;20061;-77
2021/04/26 09:32:07;;;;;;;8.38;3.83;;;;;;;;;;5084421;28;20021;-78
2021/04/26 09:34:34;;;;;;;7.85;3.55;;;;;;;;;;5079493;28;20158;-77
2021/04/26 09:37:04;;;;;;;7.32;3.25;;;;;;;;;;5087403;28;20032;-78
2021/04/26 09:39:30;;;;;;;9.80;3.75;;;;;;;;;;5081430;28;20441;-78
2021/04/26 09:41:57;;;;;;;6.15;4.00;;;;;;;;;;5093637;28;20102;-78
2021/04/26 09:44:22;;;;;;;7.82;3.17;;;;;;;;;;5081781;28;20017;-79
2021/04/26 09:46:51;;;;;;;9.70;3.67;;;;;;;;;;5078698;28;20032;-78
2021/04/26 09:49:21;;;;;;;9.82;4.03;;;;;;;;;;5084161;28;20029;-78
2021/04/26 09:51:53;;;;;;;7.78;4.38;;;;;;;;;;5080858;28;20015;-78
2021/04/26 09:54:33;;;;;;;7.85;3.88;;;;;;;;;;5085071;28;20021;-78
2021/04/26 09:57:00;;;;;;;9.10;4.10;;;;;;;;;;5084013;28;20016;-78
2021/04/26 09:59:26;;;;;;;11.75;3.90;;;;;;;;;;5084274;28;20059;-77
2021/04/26 10:01:52;;;;;;;10.75;4.07;;;;;;;;;;5078405;28;20422;-80
2021/04/26 10:04:18;;;;;;;11.93;4.82;;;;;;;;;;5086263;28;20031;-79
2021/04/26 10:06:43;;;;;;;9.32;4.22;;;;;;;;;;5081575;28;20024;-78
2021/04/26 10:09:09;;;;;;;8.00;4.32;;;;;;;;;;5088470;28;20059;-78
2021/04/26 10:11:36;;;;;;;5.47;3.58;;;;;;;;;;5080266;28;20024;-79
2021/04/26 10:14:03;;;;;;;9.30;3.17;;;;;;;;;;5084923;28;20500;-79
2021/04/26 10:16:40;;;;;;;10.38;4.07;;;;;;;;;;5087589;28;20027;-79
2021/04/26 10:19:06;;;;;;;9.88;3.95;;;;;;;;;;5086863;28;20047;-77
2021/04/26 10:21:33;;;;;;;6.10;3.63;;;;;;;;;;5086123;28;20375;-78
2021/04/26 10:24:12;;;;;;;8.30;3.35;;;;;;;;;;5082553;28;20031;-78
2021/04/26 10:26:56;;;;;;;10.25;4.13;;;;;;;;;;5087196;28;20024;-77
2021/04/26 10:29:27;;;;;;;5.97;3.80;;;;;;;;;;5081316;28;20062;-78
2021/04/26 10:32:02;;;;;;;6.05;3.25;;;;;;;;;;5086619;28;20016;-77
2021/04/26 10:34:27;;;;;;;9.18;3.78;;;;;;;;;;5076028;28;20033;-77
2021/04/26 10:36:54;;;;;;;7.68;4.20;;;;;;;;;;5089477;28;20020;-78
2021/04/26 10:39:21;;;;;;;9.18;3.75;;;;;;;;;;5078668;28;20025;-78
2021/04/26 10:44:04;;;;;;;6.15;3.42;;;;;;;;;;5092101;28;20760;-79
2021/04/26 10:46:30;;;;;;;7.13;3.55;;;;;;;;;;5069722;28;20033;-77
2021/04/26 10:49:07;;;;;;;9.43;3.95;;;;;;;;;;5062903;28;20021;-78
2021/04/26 10:51:37;;;;;;;6.80;3.97;;;;;;;;;;5061439;28;20016;-79
2021/04/26 10:54:03;;;;;;;5.50;2.88;;;;;;;;;;5061563;28;20060;-78
2021/04/26 10:56:29;;;;;;;8.40;3.38;;;;;;;;;;5059613;28;20021;-79
2021/04/26 10:59:14;;;;;;;9.18;3.47;;;;;;;;;;5061731;28;20024;-79
2021/04/26 11:01:47;;;;;;;6.82;3.25;;;;;;;;;;5046140;23;20041;-81
2021/04/26 11:04:13;;;;;;;7.75;3.60;;;;;;;;;;4999585;28;20058;-82
2021/04/26 11:06:38;;;;;;;5.82;3.05;;;;;;;;;;5013220;28;20026;-82
2021/04/26 11:09:16;;;;;;;7.40;3.03;;;;;;;;;;4996444;28;20396;-81
2021/04/26 11:11:55;;;;;;;7.60;3.17;;;;;;;;;;5006954;28;20108;-81
2021/04/26 11:14:22;;;;;;;5.30;3.00;;;;;;;;;;5014173;28;20025;-81
2021/04/26 11:16:55;;;;;;;9.98;3.60;;;;;;;;;;5015844;28;20053;-80
2021/04/26 11:19:21;;;;;;;5.82;2.65;;;;;;;;;;5029984;28;20477;-81
2021/04/26 11:21:47;;;;;;;7.70;3.13;;;;;;;;;;5017682;28;20028;-82
2021/04/26 11:24:33;;;;;;;7.15;3.05;;;;;;;;;;5015285;28;20029;-81
2021/04/26 11:27:08;;;;;;;8.40;3.15;;;;;;;;;;5011678;28;20018;-82
2021/04/26 11:29:34;;;;;;;11.85;3.47;;;;;;;;;;5031878;28;20087;-82
2021/04/26 11:32:03;;;;;;;6.45;3.55;;;;;;;;;;5015960;28;20045;-81
2021/04/26 11:34:50;;;;;;;9.68;3.47;;;;;;;;;;5028880;28;20028;-81
2021/04/26 11:37:16;;;;;;;9.38;3.53;;;;;;;;;;5032403;28;20018;-81
2021/04/26 11:39:42;;;;;;;19.65;3.83;;;;;;;;;;5017559;28;20080;-82
2021/04/26 11:42:09;;;;;;;8.93;3.35;;;;;;;;;;5016578;28;20037;-80
2021/04/26 11:44:36;;;;;;;6.45;3.80;;;;;;;;;;5029631;28;20025;-81
2021/04/26 11:47:03;;;;;;;5.70;3.10;;;;;;;;;;5015606;28;20619;-82
2021/04/26 11:49:29;;;;;;;8.98;3.45;;;;;;;;;;5013658;28;20052;-81
2021/04/26 11:51:55;;;;;;;9.98;3.80;;;;;;;;;;5012954;28;20041;-82
2021/04/26 11:54:23;;;;;;;9.52;3.67;;;;;;;;;;5007427;28;20030;-81
2021/04/26 11:57:01;;;;;;;8.98;3.50;;;;;;;;;;4998761;28;20105;-80
2021/04/26 11:59:27;;;;;;;8.98;3.13;;;;;;;;;;5000874;28;20022;-82
2021/04/26 12:01:53;;;;;;;9.40;3.80;;;;;;;;;;5000950;28;20063;-81
2021/04/26 12:04:38;;;;;;;11.18;3.63;;;;;;;;;;4999978;28;20030;-81
2021/04/26 12:07:05;;;;;;;6.25;4.00;;;;;;;;;;5000194;28;20026;-82
2021/04/26 12:09:31;;;;;;;9.55;3.42;;;;;;;;;;4999922;28;20429;-80
2021/04/26 12:11:58;;;;;;;6.93;3.22;;;;;;;;;;4998345;28;20026;-81
2021/04/26 12:14:24;;;;;;;9.93;3.40;;;;;;;;;;4999137;28;20033;-81
2021/04/26 12:16:50;;;;;;;8.65;3.50;;;;;;;;;;5020857;28;20000;-81
2021/04/26 12:19:15;;;;;;;8.23;3.30;;;;;;;;;;5016453;28;20022;-80
2021/04/26 12:21:41;;;;;;;8.02;3.60;;;;;;;;;;5004381;28;20022;-82
2021/04/26 12:24:10;;;;;;;6.15;3.70;;;;;;;;;;5011336;28;20245;-81
2021/04/26 12:26:36;;;;;;;8.00;3.90;;;;;;;;;;5000982;28;20030;-81
2021/04/26 12:29:01;;;;;;;7.90;3.40;;;;;;;;;;5000589;28;20065;-82
2021/04/26 12:31:28;;;;;;;6.50;4.15;;;;;;;;;;5019852;28;20454;-79
2021/04/26 12:34:06;;;;;;;6.80;2.83;;;;;;;;;;5002305;28;20156;-81
2021/04/26 12:36:32;;;;;;;7.72;3.35;;;;;;;;;;5015733;28;20079;-82
2021/04/26 12:38:57;;;;;;;5.30;3.35;;;;;;;;;;4999395;28;20017;-81
2021/04/26 12:41:23;;;;;;;5.47;3.30;;;;;;;;;;4997193;28;20017;-81
2021/04/26 12:43:54;;;;;;;7.30;3.55;;;;;;;;;;5000077;28;20021;-80
2021/04/26 12:46:20;;;;;;;7.03;3.92;;;;;;;;;;5011997;28;20033;-81
2021/04/26 12:48:46;;;;;;;5.68;3.80;;;;;;;;;;5017069;28;20014;-79
2021/04/26 12:51:12;;;;;;;9.43;3.63;;;;;;;;;;5012399;28;20032;-81
2021/04/26 12:53:39;;;;;;;7.18;3.80;;;;;;;;;;4999610;28;20029;-81
2021/04/26 12:56:10;;;;;;;6.38;3.47;;;;;;;;;;5017148;28;20113;-79
2021/04/26 12:58:43;;;;;;;8.95;3.65;;;;;;;;;;4996276;28;20097;-80
2021/04/26 13:01:17;;;;;;;8.85;4.03;;;;;;;;;;4999444;28;20065;-80
2021/04/26 13:03:53;;;;;;;5.78;3.20;;;;;;;;;;5002796;28;20098;-81
2021/04/26 13:06:26;;;;;;;5.22;2.88;;;;;;;;;;4996618;28;20126;-81
2021/04/26 13:08:56;;;;;;;7.40;3.30;;;;;;;;;;5016645;28;20105;-80
2021/04/26 13:11:30;;;;;;;8.05;3.35;;;;;;;;;;5001458;28;20113;-81
2021/04/26 13:13:57;;;;;;;12.80;3.00;;;;;;;;;;4993454;28;20036;-81
2021/04/26 13:16:24;;;;;;;8.60;2.90;;;;;;;;;;4996796;28;20034;-78
2021/04/26 13:18:51;;;;;;;6.68;3.20;;;;;;;;;;5013270;28;20083;-80
2021/04/26 13:21:17;;;;;;;8.95;3.50;;;;;;;;;;4999136;28;20025;-81
2021/04/26 13:23:46;;;;;;;7.28;3.42;;;;;;;;;;4995569;28;20026;-82
2021/04/26 13:26:24;;;;;;;24.33;3.75;;;;;;;;;;4994407;28;20030;-83
2021/04/26 13:28:50;;;;;;;6.53;3.40;;;;;;;;;;4997240;28;20014;-82
2021/04/26 13:31:16;;;;;;;6.55;3.15;;;;;;;;;;5012878;28;20406;-82
2021/04/26 13:33:41;;;;;;;5.85;2.95;;;;;;;;;;5015913;28;20026;-82
2021/04/26 13:36:08;;;;;;;8.57;3.60;;;;;;;;;;4992819;28;20032;-83
2021/04/26 13:38:34;;;;;;;8.70;3.22;;;;;;;;;;4993543;28;20045;-82
2021/04/26 13:41:00;;;;;;;6.88;3.35;;;;;;;;;;4993288;28;20033;-81
2021/04/26 13:43:26;;;;;;;5.43;3.38;;;;;;;;;;5005129;28;20026;-82
2021/04/26 13:45:51;;;;;;;7.05;3.25;;;;;;;;;;5010759;28;20029;-82
2021/04/26 13:48:18;;;;;;;8.32;3.20;;;;;;;;;;5009129;28;20046;-82
2021/04/26 13:50:44;;;;;;;5.40;2.90;;;;;;;;;;4995672;28;20048;-83
2021/04/26 13:53:10;;;;;;;9.15;4.03;;;;;;;;;;5010720;28;20034;-82
2021/04/26 13:55:36;;;;;;;9.57;4.03;;;;;;;;;;5009180;28;20032;-82
2021/04/26 13:58:02;;;;;;;5.63;3.50;;;;;;;;;;4994224;28;20026;-82
2021/04/26 14:00:30;;;;;;;6.03;3.20;;;;;;;;;;5010468;28;20382;-81
2021/04/26 14:02:56;;;;;;;6.93;3.38;;;;;;;;;;4996132;28;20026;-83
2021/04/26 14:05:22;;;;;;;7.15;3.67;;;;;;;;;;5010801;28;20447;-82
2021/04/26 14:07:48;;;;;;;7.22;2.95;;;;;;;;;;5011392;28;20041;-82
2021/04/26 14:10:14;;;;;;;7.13;3.03;;;;;;;;;;5012851;28;20134;-82
2021/04/26 14:12:39;;;;;;;10.45;3.55;;;;;;;;;;5009640;28;20060;-82
2021/04/26 14:15:06;;;;;;;6.05;3.22;;;;;;;;;;5011964;28;20469;-83
2021/04/26 14:17:32;;;;;;;7.30;3.55;;;;;;;;;;5011192;28;20394;-82
2021/04/26 14:19:58;;;;;;;6.93;3.35;;;;;;;;;;5011851;28;20133;-82
2021/04/26 14:22:24;;;;;;;5.85;3.28;;;;;;;;;;5011296;28;20030;-82
2021/04/26 14:24:49;;;;;;;8.07;3.47;;;;;;;;;;5008795;28;20026;-82
2021/04/26 14:27:15;;;;;;;11.45;3.13;;;;;;;;;;5007200;28;20033;-83
2021/04/26 14:29:41;;;;;;;7.82;3.05;;;;;;;;;;5012904;28;20398;-81
2021/04/26 14:32:06;;;;;;;8.18;2.90;;;;;;;;;;5006698;28;20022;-82
2021/04/26 14:34:32;;;;;;;17.48;3.65;;;;;;;;;;5007503;28;20471;-81
2021/04/26 14:36:58;;;;;;;11.98;3.75;;;;;;;;;;5014297;28;20044;-82
2021/04/26 14:39:24;;;;;;;6.57;3.40;;;;;;;;;;4996667;28;20501;-82
2021/04/26 14:41:50;;;;;;;8.45;3.30;;;;;;;;;;5013861;28;20021;-83
2021/04/26 14:44:15;;;;;;;5.88;2.75;;;;;;;;;;5010828;28;20411;-82
2021/04/26 14:46:41;;;;;;;7.07;3.45;;;;;;;;;;5015867;28;20105;-81
2021/04/26 14:49:07;;;;;;;6.53;2.83;;;;;;;;;;4994478;28;20018;-81
2021/04/26 14:51:32;;;;;;;5.93;2.60;;;;;;;;;;5007184;28;20438;-82
2021/04/26 14:53:58;;;;;;;5.80;2.60;;;;;;;;;;5011221;28;20385;-81
2021/04/26 14:56:24;;;;;;;5.32;2.55;;;;;;;;;;5011492;28;20018;-82
2021/04/26 14:58:50;;;;;;;5.43;2.80;;;;;;;;;;4996723;28;20022;-83
2021/04/26 15:01:16;;;;;;;5.78;3.58;;;;;;;;;;4991840;28;20405;-82
2021/04/26 15:03:42;;;;;;;9.20;3.42;;;;;;;;;;5012141;28;20073;-80
2021/04/26 15:06:08;;;;;;;7.57;3.75;;;;;;;;;;5010153;28;20537;-80
2021/04/26 15:08:33;;;;;;;9.40;3.83;;;;;;;;;;4996601;28;20030;-82
2021/04/26 15:10:59;;;;;;;8.63;2.92;;;;;;;;;;5014891;28;20032;-81
2021/04/26 15:13:25;;;;;;;9.68;3.90;;;;;;;;;;5015990;28;20021;-82
2021/04/26 15:15:50;;;;;;;7.20;2.80;;;;;;;;;;5013961;28;20029;-79
2021/04/26 15:18:16;;;;;;;5.47;2.97;;;;;;;;;;5008475;28;20030;-80
2021/04/26 15:20:42;;;;;;;5.35;2.97;;;;;;;;;;5011409;28;20022;-80
2021/04/26 15:23:08;;;;;;;6.03;3.55;;;;;;;;;;5007971;28;20025;-80
2021/04/26 15:25:35;;;;;;;6.18;2.80;;;;;;;;;;5010833;28;20026;-79
2021/04/26 15:28:00;;;;;;;4.13;2.38;;;;;;;;;;4990493;28;20033;-80
2021/04/26 15:30:28;;;;;;;4.93;2.70;;;;;;;;;;5010022;28;20478;-80
2021/04/26 15:32:57;;;;;;;6.70;2.83;;;;;;;;;;4996328;28;20018;-80
2021/04/26 15:35:23;;;;;;;5.88;3.10;;;;;;;;;;4998103;28;20020;-79
2021/04/26 15:37:49;;;;;;;5.13;3.00;;;;;;;;;;4998688;28;20445;-80
2021/04/26 15:40:14;;;;;;;4.80;3.05;;;;;;;;;;5017455;28;20033;-80
2021/04/26 15:42:40;;;;;;;7.22;2.63;;;;;;;;;;5018282;28;20018;-80
2021/04/26 15:45:06;;;;;;;6.00;2.72;;;;;;;;;;5000262;28;20056;-80
2021/04/26 15:47:32;;;;;;;5.32;2.95;;;;;;;;;;4994410;28;20022;-80
2021/04/26 15:49:58;;;;;;;8.15;2.78;;;;;;;;;;5016097;28;20030;-82
2021/04/26 15:52:23;;;;;;;5.90;2.70;;;;;;;;;;5014628;28;20044;-80
2021/04/26 15:54:49;;;;;;;5.97;2.90;;;;;;;;;;4996372;28;20108;-80
2021/04/26 15:57:15;;;;;;;6.95;3.00;;;;;;;;;;4995778;28;20498;-80
2021/04/26 15:59:41;;;;;;;5.25;2.40;;;;;;;;;;4997880;28;20034;-80
2021/04/26 16:02:08;;;;;;;8.20;2.80;;;;;;;;;;4992977;28;20033;-81
2021/04/26 16:04:34;;;;;;;6.05;2.70;;;;;;;;;;5013416;28;20025;-82
2021/04/26 16:07:00;;;;;;;4.07;2.13;;;;;;;;;;4992525;28;20102;-80
2021/04/26 16:09:25;;;;;;;8.35;3.45;;;;;;;;;;5010210;28;20045;-81
2021/04/26 16:11:51;;;;;;;11.13;3.33;;;;;;;;;;5014824;28;20033;-81
2021/04/26 16:14:17;;;;;;;30.88;18.73;;;;;;;;;;5014660;28;20029;-80
2021/04/26 16:16:42;;;;;;;8.05;3.28;;;;;;;;;;5008377;28;20025;-82
2021/04/26 16:19:08;;;;;;;6.68;3.17;;;;;;;;;;5017822;28;20026;-81
2021/04/26 16:21:34;;;;;;;8.32;2.83;;;;;;;;;;5014518;28;20073;-81
2021/04/26 16:24:00;;;;;;;6.15;3.25;;;;;;;;;;4994935;28;20394;-80
2021/04/26 16:26:26;;;;;;;7.05;3.42;;;;;;;;;;5016893;28;20022;-81
2021/04/26 16:28:52;;;;;;;4.93;2.67;;;;;;;;;;5016333;28;20021;-80
2021/04/26 16:31:18;;;;;;;4.47;2.65;;;;;;;;;;5014952;28;20025;-80
2021/04/26 16:33:44;;;;;;;6.95;2.90;;;;;;;;;;5013896;28;20018;-81
2021/04/26 16:36:09;;;;;;;6.75;2.60;;;;;;;;;;5014874;28;20018;-81
2021/04/26 16:38:35;;;;;;;5.18;2.67;;;;;;;;;;5016427;28;20025;-81
2021/04/26 16:41:01;;;;;;;18.40;11.85;;;;;;;;;;5014348;28;20121;-81
2021/04/26 16:43:26;;;;;;;15.50;10.55;;;;;;;;;;5012627;28;20018;-81
2021/04/26 16:45:52;;;;;;;9.57;6.40;;;;;;;;;;5015677;28;20532;-80
2021/04/26 16:48:18;;;;;;;9.35;6.05;;;;;;;;;;4994687;28;20028;-80
2021/04/26 16:50:44;;;;;;;6.65;3.15;;;;;;;;;;5013343;28;20026;-81
2021/04/26 16:53:09;;;;;;;8.63;5.88;;;;;;;;;;4995089;28;20021;-80
2021/04/26 16:55:35;;;;;;;5.05;3.05;;;;;;;;;;5015002;28;20040;-80
2021/04/26 16:58:02;;;;;;;8.88;4.53;;;;;;;;;;5015970;28;20025;-81
2021/04/26 17:02:48;;;;;;;5.35;2.95;;;;;;;;;;5102319;27;20354;-80
2021/04/26 17:05:14;;;;;;;6.20;3.08;;;;;;;;;;5087801;28;20032;-82
2021/04/26 17:07:40;;;;;;;9.65;2.78;;;;;;;;;;5092259;22;20110;-84
2021/04/26 17:10:07;;;;;;;4.88;2.17;;;;;;;;;;5059245;28;20063;-84
2021/04/26 17:12:33;;;;;;;6.65;2.67;;;;;;;;;;5044712;28;20048;-84
2021/04/26 17:14:58;;;;;;;4.70;2.40;;;;;;;;;;5046353;28;20036;-84
2021/04/26 17:17:24;;;;;;;6.18;2.65;;;;;;;;;;5061876;28;20032;-84
2021/04/26 17:19:51;;;;;;;4.43;2.50;;;;;;;;;;5065075;28;20033;-81
2021/04/26 17:22:17;;;;;;;6.80;3.00;;;;;;;;;;5058954;28;20102;-77
2021/04/26 17:24:44;;;;;;;5.43;2.60;;;;;;;;;;5051201;28;20035;-82
2021/04/26 17:27:09;;;;;;;6.78;2.40;;;;;;;;;;5066430;28;20068;-82
2021/04/26 17:29:35;;;;;;;3.45;2.08;;;;;;;;;;5067041;28;20024;-82
2021/04/26 17:32:01;;;;;;;5.07;1.92;;;;;;;;;;5067234;28;20021;-82
2021/04/26 17:34:26;;;;;;;4.28;2.25;;;;;;;;;;5066963;28;20108;-82
2021/04/26 17:36:52;;;;;;;5.20;2.17;;;;;;;;;;5065720;28;20036;-81
2021/04/26 17:39:18;;;;;;;5.00;1.83;;;;;;;;;;5063282;28;20035;-81
2021/04/26 17:41:43;;;;;;;6.30;2.22;;;;;;;;;;5049258;28;20032;-82
2021/04/26 17:44:09;;;;;;;3.88;1.80;;;;;;;;;;5064999;28;20112;-82
2021/04/26 17:46:35;;;;;;;5.43;2.00;;;;;;;;;;5064168;28;20104;-81
2021/04/26 17:49:00;;;;;;;4.50;1.88;;;;;;;;;;5045103;28;20116;-82
2021/04/26 17:51:26;;;;;;;8.43;2.80;;;;;;;;;;5062230;28;20039;-80
2021/04/26 17:53:52;;;;;;;6.60;2.92;;;;;;;;;;5060342;28;20378;-82
2021/04/26 17:56:18;;;;;;;5.30;2.15;;;;;;;;;;5066475;28;20017;-83
2021/04/26 17:58:44;;;;;;;4.72;1.95;;;;;;;;;;5061480;28;20115;-79
2021/04/26 18:01:11;;;;;;;6.13;2.72;;;;;;;;;;5047403;28;20037;-83
2021/04/26 18:03:37;;;;;;;6.68;3.40;;;;;;;;;;5062596;28;20082;-82
2021/04/26 18:06:03;;;;;;;6.80;4.13;;;;;;;;;;5059115;28;20012;-83
2021/04/26 18:08:28;;;;;;;7.85;5.53;;;;;;;;;;5062214;28;20070;-82
2021/04/26 18:10:55;;;;;;;7.25;3.97;;;;;;;;;;5063854;28;20059;-83
2021/04/26 18:13:21;;;;;;;4.30;2.17;;;;;;;;;;5051325;28;20078;-82
2021/04/26 18:15:47;;;;;;;3.20;1.80;;;;;;;;;;5031799;28;20029;-83
2021/04/26 18:18:12;;;;;;;6.13;2.78;;;;;;;;;;5044738;28;20036;-83
2021/04/26 18:20:38;;;;;;;3.83;2.55;;;;;;;;;;5047926;28;20066;-82
2021/04/26 18:23:05;;;;;;;2.70;1.80;;;;;;;;;;5048053;28;20104;-82
2021/04/26 18:25:31;;;;;;;5.63;2.28;;;;;;;;;;5046502;28;20017;-83
2021/04/26 18:27:56;;;;;;;3.92;1.90;;;;;;;;;;5041941;28;20036;-83
2021/04/26 18:30:22;;;;;;;5.90;4.25;;;;;;;;;;5047560;28;20109;-83
2021/04/26 18:32:48;;;;;;;7.18;3.78;;;;;;;;;;5049896;28;20028;-83
2021/04/26 18:35:13;;;;;;;10.50;7.88;;;;;;;;;;5046152;28;20024;-83
2021/04/26 18:37:39;;;;;;;8.13;7.25;;;;;;;;;;5046930;28;20029;-83
2021/04/26 18:42:23;;;;;;;3.75;2.70;;;;;;;;;;5067432;28;20818;-82
2021/04/26 18:44:49;;;;;;;3.78;2.50;;;;;;;;;;5067472;28;20068;-81
2021/04/26 18:47:14;;;;;;;3.10;1.88;;;;;;;;;;5045204;28;20124;-81
2021/04/26 18:49:41;;;;;;;3.85;2.17;;;;;;;;;;5057879;28;20070;-81
2021/04/26 18:52:07;;;;;;;4.25;3.38;;;;;;;;;;5061749;28;20115;-81
2021/04/26 18:54:32;;;;;;;3.85;3.40;;;;;;;;;;5065316;28;20020;-81
2021/04/26 18:56:58;;;;;;;3.28;2.08;;;;;;;;;;5064790;28;20015;-81
2021/04/26 18:59:24;;;;;;;2.88;1.65;;;;;;;;;;5067320;28;20031;-81
2021/04/26 19:01:50;;;;;;;3.92;1.80;;;;;;;;;;5044356;28;20014;-81
2021/04/26 19:04:16;;;;;;;4.95;1.30;;;;;;;;;;5061702;28;20460;-83
2021/04/26 19:06:41;;;;;;;3.13;1.25;;;;;;;;;;5067066;28;20103;-81
2021/04/26 19:09:07;;;;;;;3.50;1.33;;;;;;;;;;5066696;28;20043;-81
2021/04/26 19:11:33;;;;;;;7.00;1.52;;;;;;;;;;5067425;28;20104;-81
2021/04/26 19:14:01;;;;;;;3.05;1.25;;;;;;;;;;5064124;28;20052;-81
2021/04/26 19:16:26;;;;;;;4.18;1.45;;;;;;;;;;5062949;28;20028;-81
2021/04/26 19:18:52;;;;;;;2.42;1.20;;;;;;;;;;5048283;28;20024;-81
2021/04/26 19:21:18;;;;;;;4.85;1.40;;;;;;;;;;5047964;28;20135;-81
2021/04/26 19:23:43;;;;;;;7.95;1.90;;;;;;;;;;5065943;28;20104;-81
2021/04/26 19:26:10;;;;;;;3.33;1.25;;;;;;;;;;5065337;28;20100;-81
2021/04/26 19:28:35;;;;;;;2.85;1.10;;;;;;;;;;5050508;28;20438;-81
2021/04/26 19:31:01;;;;;;;2.45;0.93;;;;;;;;;;5049346;28;20016;-81
2021/04/26 19:33:27;;;;;;;4.47;1.27;;;;;;;;;;5049180;28;20645;-81
2021/04/26 19:35:53;;;;;;;4.90;1.42;;;;;;;;;;5066651;28;20460;-82
2021/04/26 19:38:20;;;;;;;3.30;1.20;;;;;;;;;;5064321;28;20477;-81